User Login    
 + Register

Forecast for your location

Detailed conditions for your location

Current US satellite images

Current US radar image

Current US warnings and watches

Various US weather maps

The raw METAR code for this location is KSFO 191156Z 11006KT 6SM -RA BR FEW016 BKN036 OVC044 13/13 A3014 RMK AO2 RAB27 SLP205 P0001 60001 70001 T01330128 10144 20133 55003

Decoded METAR for this location (may not be available)

Listen to KTTN-FM